Pink Coral — 9HPY9 — position and weather

sailwx.info

Track history (hours):
 
Tides and Currents Weather Stations Pressure Air Temp Water Temp Dewpoint Dewpoint Depression Visibility Wind Speed Wind Dir Waves Ship Positions

Pink Coral

Last reported at 2017-May-27 12:55 UTC. Time now 2017-May-27 13:48 UTC.
Position N 34°45' E 030°29'.

Length 183 m; draft 8.6 m.

Type: Tanker. MMSI: 249344000.

Date/timePositionNaut miles runAvg speedWind from/ knotsBaromVisibWave heightAir tempDewpointWater temp
2017-May-27 12:55N 34°45' E 030°29'15512.8
2017-May-27 00:46N 34°40' E 033°37'313.6
2017-May-27 00:30N 34°42' E 033°41'713.8
2017-May-27 00:00N 34°45' E 033°49'713.5
2017-May-26 23:29N 34°48' E 033°56'713.2
2017-May-26 22:56N 34°52' E 034°04'613.1
2017-May-26 22:27N 34°54' E 034°11'  
2017-May-24 15:17N 35°19' E 034°00'2 2.7
2017-May-24 14:38N 35°18' E 033°59'0 0.6
2017-May-24 13:59N 35°18' E 033°58'0 0.0
2017-May-24 13:29N 35°18' E 033°58'  
2017-May-20 19:46N 36°17' E 014°53'413.6
2017-May-20 19:30N 36°18' E 014°48'713.7
2017-May-20 19:00N 36°20' E 014°40'713.7
2017-May-20 18:30N 36°21' E 014°32'713.6
2017-May-20 18:00N 36°23' E 014°24'713.3
2017-May-20 17:30N 36°25' E 014°16'713.3
2017-May-20 17:00N 36°27' E 014°08'713.3
2017-May-20 16:30N 36°29' E 014°00'713.2
2017-May-20 16:00N 36°31' E 013°52'713.3
2017-May-20 15:30N 36°33' E 013°45'713.3
2017-May-20 15:00N 36°35' E 013°37'1313.0
2017-May-20 14:00N 36°39' E 013°21'713.1
2017-May-20 13:30N 36°41' E 013°13'713.1
2017-May-20 13:00N 36°43' E 013°06'713.1
2017-May-20 12:30N 36°45' E 012°58'713.3
2017-May-20 12:00N 36°47' E 012°50'713.6
2017-May-20 11:29N 36°49' E 012°41'713.7
2017-May-20 11:00N 36°51' E 012°34'16713.6
2017-May-19 22:46N 37°45' E 009°16'514.5
2017-May-19 22:25N 37°47' E 009°09'614.8
2017-May-19 22:00N 37°49' E 009°02'714.3
2017-May-19 21:30N 37°48' E 008°53'713.9
2017-May-19 21:00N 37°47' E 008°44'713.6
2017-May-19 20:29N 37°46' E 008°35'1113.3
2017-May-19 19:41N 37°44' E 008°22'413.3
2017-May-19 19:21N 37°44' E 008°16'513.1
2017-May-19 18:59N 37°43' E 008°10'613.2
2017-May-19 18:30N 37°42' E 008°03'713.2
2017-May-19 17:59N 37°40' E 007°54'613.1
2017-May-19 17:29N 37°40' E 007°46'30313.3
2017-May-18 18:40N 36°51' E 001°31'313.6
2017-May-18 18:27N 36°50' E 001°27'4214.1
2017-May-18 15:27N 36°43' E 000°35'614.1
2017-May-18 15:00N 36°42' E 000°27'10113.0
2017-May-18 07:13N 36°26' W 001°37'17414.0
2017-May-17 18:46N 36°01' W 005°10'414.1
2017-May-17 18:30N 36°00' W 005°15'612.7
2017-May-17 18:00N 36°04' W 005°21'5 9.8
2017-May-17 17:29N 36°09' W 005°25'  
Track history (hours):
 
Tides and Currents Weather Stations Pressure Air Temp Water Temp Dewpoint Dewpoint Depression Visibility Wind Speed Wind Dir Waves Ship Positions

Pink Coral

Last reported at 2017-May-27 12:55 UTC. Time now 2017-May-27 13:48 UTC.
Position N 34°45' E 030°29'.

Length 183 m; draft 8.6 m.

Type: Tanker. MMSI: 249344000.

Date/timePositionNaut miles runAvg speedWind from/ knotsBaromVisibWave heightAir tempDewpointWater temp
2017-May-27 12:55N 34°45' E 030°29'15512.8
2017-May-27 00:46N 34°40' E 033°37'313.6
2017-May-27 00:30N 34°42' E 033°41'713.8
2017-May-27 00:00N 34°45' E 033°49'713.5
2017-May-26 23:29N 34°48' E 033°56'713.2
2017-May-26 22:56N 34°52' E 034°04'613.1
2017-May-26 22:27N 34°54' E 034°11'  
2017-May-24 15:17N 35°19' E 034°00'2 2.7
2017-May-24 14:38N 35°18' E 033°59'0 0.6
2017-May-24 13:59N 35°18' E 033°58'0 0.0
2017-May-24 13:29N 35°18' E 033°58'  
2017-May-20 19:46N 36°17' E 014°53'413.6
2017-May-20 19:30N 36°18' E 014°48'713.7
2017-May-20 19:00N 36°20' E 014°40'713.7
2017-May-20 18:30N 36°21' E 014°32'713.6
2017-May-20 18:00N 36°23' E 014°24'713.3
2017-May-20 17:30N 36°25' E 014°16'713.3
2017-May-20 17:00N 36°27' E 014°08'713.3
2017-May-20 16:30N 36°29' E 014°00'713.2
2017-May-20 16:00N 36°31' E 013°52'713.3
2017-May-20 15:30N 36°33' E 013°45'713.3
2017-May-20 15:00N 36°35' E 013°37'1313.0
2017-May-20 14:00N 36°39' E 013°21'713.1
2017-May-20 13:30N 36°41' E 013°13'713.1
2017-May-20 13:00N 36°43' E 013°06'713.1
2017-May-20 12:30N 36°45' E 012°58'713.3
2017-May-20 12:00N 36°47' E 012°50'713.6
2017-May-20 11:29N 36°49' E 012°41'713.7
2017-May-20 11:00N 36°51' E 012°34'16713.6
2017-May-19 22:46N 37°45' E 009°16'514.5
2017-May-19 22:25N 37°47' E 009°09'614.8
2017-May-19 22:00N 37°49' E 009°02'714.3
2017-May-19 21:30N 37°48' E 008°53'713.9
2017-May-19 21:00N 37°47' E 008°44'713.6
2017-May-19 20:29N 37°46' E 008°35'1113.3
2017-May-19 19:41N 37°44' E 008°22'413.3
2017-May-19 19:21N 37°44' E 008°16'513.1
2017-May-19 18:59N 37°43' E 008°10'613.2
2017-May-19 18:30N 37°42' E 008°03'713.2
2017-May-19 17:59N 37°40' E 007°54'613.1
2017-May-19 17:29N 37°40' E 007°46'30313.3
2017-May-18 18:40N 36°51' E 001°31'313.6
2017-May-18 18:27N 36°50' E 001°27'4214.1
2017-May-18 15:27N 36°43' E 000°35'614.1
2017-May-18 15:00N 36°42' E 000°27'10113.0
2017-May-18 07:13N 36°26' W 001°37'17414.0
2017-May-17 18:46N 36°01' W 005°10'414.1
2017-May-17 18:30N 36°00' W 005°15'612.7
2017-May-17 18:00N 36°04' W 005°21'5 9.8
2017-May-17 17:29N 36°09' W 005°25'  

Dump ship's entire track history